sensor_id;sensor_type;location;lat;lon;timestamp;pressure;altitude;pressure_sealevel;temperature;humidity
58658;BME280;44428;45.630;13.786;2023-02-21T00:02:39;102209.00;;;6.17;100.00
58658;BME280;44428;45.630;13.786;2023-02-21T00:05:23;102205.59;;;6.15;100.00
58658;BME280;44428;45.630;13.786;2023-02-21T00:08:07;102209.19;;;6.11;100.00
58658;BME280;44428;45.630;13.786;2023-02-21T00:10:52;102217.13;;;6.08;100.00
58658;BME280;44428;45.630;13.786;2023-02-21T00:13:38;102213.78;;;6.03;100.00
58658;BME280;44428;45.630;13.786;2023-02-21T00:16:23;102209.44;;;6.02;100.00
58658;BME280;44428;45.630;13.786;2023-02-21T00:19:08;102206.00;;;6.00;100.00
58658;BME280;44428;45.630;13.786;2023-02-21T00:21:52;102206.00;;;6.00;100.00
58658;BME280;44428;45.630;13.786;2023-02-21T00:24:37;102209.44;;;6.02;100.00
58658;BME280;44428;45.630;13.786;2023-02-21T00:27:23;102207.72;;;6.01;100.00
58658;BME280;44428;45.630;13.786;2023-02-21T00:30:09;102212.88;;;6.04;100.00
58658;BME280;44428;45.630;13.786;2023-02-21T00:32:57;102210.25;;;6.04;100.00
58658;BME280;44428;45.630;13.786;2023-02-21T00:35:42;102211.88;;;6.08;100.00
58658;BME280;44428;45.630;13.786;2023-02-21T00:38:26;102205.94;;;6.03;100.00
58658;BME280;44428;45.630;13.786;2023-02-21T00:41:11;102199.75;;;6.04;100.00
58658;BME280;44428;45.630;13.786;2023-02-21T00:43:55;102205.84;;;6.06;100.00
58658;BME280;44428;45.630;13.786;2023-02-21T00:46:40;102207.47;;;6.10;100.00
58658;BME280;44428;45.630;13.786;2023-02-21T00:49:25;102203.13;;;6.09;100.00
58658;BME280;44428;45.630;13.786;2023-02-21T00:52:09;102200.50;;;6.09;100.00
58658;BME280;44428;45.630;13.786;2023-02-21T00:54:54;102199.41;;;6.17;100.00
58658;BME280;44428;45.630;13.786;2023-02-21T00:57:39;102197.47;;;6.23;100.00
58658;BME280;44428;45.630;13.786;2023-02-21T01:00:24;102198.97;;;6.31;100.00
58658;BME280;44428;45.630;13.786;2023-02-21T01:03:10;102189.13;;;6.39;100.00
58658;BME280;44428;45.630;13.786;2023-02-21T01:05:56;102190.47;;;6.53;100.00
58658;BME280;44428;45.630;13.786;2023-02-21T01:08:44;102186.50;;;6.69;100.00
58658;BME280;44428;45.630;13.786;2023-02-21T01:11:31;102187.94;;;6.79;100.00
58658;BME280;44428;45.630;13.786;2023-02-21T01:14:16;102196.63;;;6.81;100.00
58658;BME280;44428;45.630;13.786;2023-02-21T01:17:01;102191.28;;;6.84;100.00
58658;BME280;44428;45.630;13.786;2023-02-21T01:19:46;102204.34;;;6.87;100.00
58658;BME280;44428;45.630;13.786;2023-02-21T01:22:33;102192.91;;;6.88;100.00
58658;BME280;44428;45.630;13.786;2023-02-21T01:25:20;102186.53;;;6.96;100.00
58658;BME280;44428;45.630;13.786;2023-02-21T01:28:04;102182.84;;;7.01;100.00
58658;BME280;44428;45.630;13.786;2023-02-21T01:30:49;102188.88;;;7.05;100.00
58658;BME280;44428;45.630;13.786;2023-02-21T01:33:38;102188.59;;;7.14;100.00
58658;BME280;44428;45.630;13.786;2023-02-21T01:36:25;102195.38;;;7.21;100.00
58658;BME280;44428;45.630;13.786;2023-02-21T01:39:10;102186.47;;;7.25;100.00
58658;BME280;44428;45.630;13.786;2023-02-21T01:41:55;102190.66;;;7.31;100.00
58658;BME280;44428;45.630;13.786;2023-02-21T01:44:45;102182.84;;;7.29;100.00
58658;BME280;44428;45.630;13.786;2023-02-21T01:47:32;102189.63;;;7.37;100.00
58658;BME280;44428;45.630;13.786;2023-02-21T01:53:13;102172.13;;;7.36;100.00
58658;BME280;44428;45.630;13.786;2023-02-21T01:55:59;102175.53;;;7.38;100.00
58658;BME280;44428;45.630;13.786;2023-02-21T01:58:48;102177.19;;;7.42;100.00
58658;BME280;44428;45.630;13.786;2023-02-21T02:01:53;102168.38;;;7.43;100.00
58658;BME280;44428;45.630;13.786;2023-02-21T02:04:40;102162.25;;;7.42;100.00
58658;BME280;44428;45.630;13.786;2023-02-21T02:07:25;102163.00;;;7.46;100.00
58658;BME280;44428;45.630;13.786;2023-02-21T02:10:10;102161.19;;;7.48;100.00
58658;BME280;44428;45.630;13.786;2023-02-21T02:16:07;102154.09;;;7.50;100.00
58658;BME280;44428;45.630;13.786;2023-02-21T02:24:32;102136.16;;;7.61;100.00
58658;BME280;44428;45.630;13.786;2023-02-21T02:27:42;102123.63;;;7.69;100.00
58658;BME280;44428;45.630;13.786;2023-02-21T02:30:30;102128.66;;;7.75;100.00
58658;BME280;44428;45.630;13.786;2023-02-21T02:36:30;102123.28;;;7.78;100.00
58658;BME280;44428;45.630;13.786;2023-02-21T02:39:02;102114.34;;;7.83;100.00
58658;BME280;44428;45.630;13.786;2023-02-21T02:44:25;102121.44;;;7.80;100.00
58658;BME280;44428;45.630;13.786;2023-02-21T02:46:56;102125.00;;;7.79;100.00
58658;BME280;44428;45.630;13.786;2023-02-21T02:49:28;102114.47;;;7.79;100.00
58658;BME280;44428;45.630;13.786;2023-02-21T02:52:02;102115.31;;;7.80;100.00
58658;BME280;44428;45.630;13.786;2023-02-21T02:54:29;102112.75;;;7.78;100.00
58658;BME280;44428;45.630;13.786;2023-02-21T02:56:56;102119.63;;;7.83;100.00
58658;BME280;44428;45.630;13.786;2023-02-21T02:59:25;102105.47;;;7.87;100.00
58658;BME280;44428;45.630;13.786;2023-02-21T03:13:10;102098.22;;;7.92;100.00
58658;BME280;44428;45.630;13.786;2023-02-21T03:15:51;102093.19;;;7.86;100.00
58658;BME280;44428;45.630;13.786;2023-02-21T03:18:34;102090.03;;;7.76;100.00
58658;BME280;44428;45.630;13.786;2023-02-21T03:21:04;102083.34;;;7.67;100.00
58658;BME280;44428;45.630;13.786;2023-02-21T03:23:34;102089.53;;;7.66;100.00
58658;BME280;44428;45.630;13.786;2023-02-21T03:26:03;102081.84;;;7.60;100.00
58658;BME280;44428;45.630;13.786;2023-02-21T03:28:32;102085.16;;;7.65;100.00
58658;BME280;44428;45.630;13.786;2023-02-21T03:31:01;102092.16;;;7.66;100.00
58658;BME280;44428;45.630;13.786;2023-02-21T03:33:31;102087.75;;;7.67;100.00
58658;BME280;44428;45.630;13.786;2023-02-21T03:36:04;102089.47;;;7.68;100.00
58658;BME280;44428;45.630;13.786;2023-02-21T03:38:31;102090.19;;;7.71;100.00
58658;BME280;44428;45.630;13.786;2023-02-21T03:40:57;102083.34;;;7.67;100.00
58658;BME280;44428;45.630;13.786;2023-02-21T03:43:24;102086.91;;;7.66;100.00
58658;BME280;44428;45.630;13.786;2023-02-21T03:45:56;102080.00;;;7.62;100.00
58658;BME280;44428;45.630;13.786;2023-02-21T03:48:23;102080.00;;;7.62;100.00
58658;BME280;44428;45.630;13.786;2023-02-21T03:50:51;102083.66;;;7.58;100.00
58658;BME280;44428;45.630;13.786;2023-02-21T03:53:18;102073.38;;;7.52;100.00
58658;BME280;44428;45.630;13.786;2023-02-21T03:55:45;102074.34;;;7.49;100.00
58658;BME280;44428;45.630;13.786;2023-02-21T03:58:19;102083.19;;;7.47;100.00
58658;BME280;44428;45.630;13.786;2023-02-21T04:00:46;102080.66;;;7.44;100.00
58658;BME280;44428;45.630;13.786;2023-02-21T04:03:15;102086.13;;;7.38;100.00
58658;BME280;44428;45.630;13.786;2023-02-21T04:05:49;102084.66;;;7.30;100.00
58658;BME280;44428;45.630;13.786;2023-02-21T04:08:16;102081.41;;;7.22;100.00
58658;BME280;44428;45.630;13.786;2023-02-21T04:10:43;102086.84;;;7.18;100.00
58658;BME280;44428;45.630;13.786;2023-02-21T04:13:09;102078.31;;;7.11;100.00
58658;BME280;44428;45.630;13.786;2023-02-21T04:15:41;102083.63;;;7.08;100.00
58658;BME280;44428;45.630;13.786;2023-02-21T04:18:08;102083.63;;;7.08;100.00
58658;BME280;44428;45.630;13.786;2023-02-21T04:20:36;102078.50;;;7.05;100.00
58658;BME280;44428;45.630;13.786;2023-02-21T04:23:03;102070.78;;;7.00;100.00
58658;BME280;44428;45.630;13.786;2023-02-21T04:25:31;102075.19;;;7.00;100.00
58658;BME280;44428;45.630;13.786;2023-02-21T04:28:02;102071.84;;;6.95;100.00
58658;BME280;44428;45.630;13.786;2023-02-21T04:30:29;102068.38;;;6.93;100.00
58658;BME280;44428;45.630;13.786;2023-02-21T04:32:55;102070.22;;;6.91;100.00
58658;BME280;44428;45.630;13.786;2023-02-21T04:35:23;102074.53;;;6.93;100.00
58658;BME280;44428;45.630;13.786;2023-02-21T04:37:49;102077.19;;;6.92;100.00
58658;BME280;44428;45.630;13.786;2023-02-21T04:40:15;102068.38;;;6.93;100.00
58658;BME280;44428;45.630;13.786;2023-02-21T04:42:42;102073.66;;;6.93;100.00
58658;BME280;44428;45.630;13.786;2023-02-21T04:45:09;102080.75;;;6.91;100.00
58658;BME280;44428;45.630;13.786;2023-02-21T04:47:36;102068.38;;;6.93;100.00
58658;BME280;44428;45.630;13.786;2023-02-21T04:50:03;102063.03;;;6.96;100.00
58658;BME280;44428;45.630;13.786;2023-02-21T04:52:30;102063.03;;;6.96;100.00
58658;BME280;44428;45.630;13.786;2023-02-21T04:54:56;102064.88;;;6.94;100.00
58658;BME280;44428;45.630;13.786;2023-02-21T04:57:22;102060.59;;;6.89;100.00
58658;BME280;44428;45.630;13.786;2023-02-21T04:59:55;102059.72;;;6.91;100.00
58658;BME280;44428;45.630;13.786;2023-02-21T05:02:22;102053.66;;;6.88;100.00
58658;BME280;44428;45.630;13.786;2023-02-21T05:04:47;102051.03;;;6.88;100.00
58658;BME280;44428;45.630;13.786;2023-02-21T05:07:14;102051.13;;;6.85;100.00
58658;BME280;44428;45.630;13.786;2023-02-21T05:09:40;102047.69;;;6.83;100.00
58658;BME280;44428;45.630;13.786;2023-02-21T05:12:06;102054.78;;;6.81;100.00
58658;BME280;44428;45.630;13.786;2023-02-21T05:14:39;102061.84;;;6.79;100.00
58658;BME280;44428;45.630;13.786;2023-02-21T05:17:06;102060.31;;;6.72;100.00
58658;BME280;44428;45.630;13.786;2023-02-21T05:19:33;102058.59;;;6.71;100.00
58658;BME280;44428;45.630;13.786;2023-02-21T05:22:00;102055.19;;;6.69;100.00
58658;BME280;44428;45.630;13.786;2023-02-21T05:24:28;102047.28;;;6.69;100.00
58658;BME280;44428;45.630;13.786;2023-02-21T05:26:56;102046.38;;;6.70;100.00
58658;BME280;44428;45.630;13.786;2023-02-21T05:29:23;102048.09;;;6.71;100.00
58658;BME280;44428;45.630;13.786;2023-02-21T05:31:49;102044.66;;;6.69;100.00
58658;BME280;44428;45.630;13.786;2023-02-21T05:34:15;102057.69;;;6.72;100.00
58658;BME280;44428;45.630;13.786;2023-02-21T05:36:45;102047.88;;;6.77;100.00
58658;BME280;44428;45.630;13.786;2023-02-21T05:39:11;102051.22;;;6.82;100.00
58658;BME280;44428;45.630;13.786;2023-02-21T05:41:37;102047.47;;;6.89;100.00
58658;BME280;44428;45.630;13.786;2023-02-21T05:44:03;102043.84;;;6.94;100.00
58658;BME280;44428;45.630;13.786;2023-02-21T05:46:32;102041.91;;;6.99;100.00
58658;BME280;44428;45.630;13.786;2023-02-21T05:49:00;102046.19;;;7.01;100.00
58658;BME280;44428;45.630;13.786;2023-02-21T05:51:27;102040.94;;;7.01;100.00
58658;BME280;44428;45.630;13.786;2023-02-21T05:53:58;102044.28;;;7.06;100.00
58658;BME280;44428;45.630;13.786;2023-02-21T05:56:24;102046.84;;;7.08;100.00
58658;BME280;44428;45.630;13.786;2023-02-21T05:58:50;102041.50;;;7.11;100.00
58658;BME280;44428;45.630;13.786;2023-02-21T06:01:16;102044.94;;;7.13;100.00
58658;BME280;44428;45.630;13.786;2023-02-21T06:03:42;102050.06;;;7.16;100.00
58658;BME280;44428;45.630;13.786;2023-02-21T06:06:08;102055.22;;;7.19;100.00
58658;BME280;44428;45.630;13.786;2023-02-21T06:08:42;102053.41;;;7.21;100.00
58658;BME280;44428;45.630;13.786;2023-02-21T06:11:08;102059.50;;;7.23;100.00
58658;BME280;44428;45.630;13.786;2023-02-21T06:13:34;102064.63;;;7.26;100.00
58658;BME280;44428;45.630;13.786;2023-02-21T06:16:00;102065.31;;;7.31;100.00
58658;BME280;44428;45.630;13.786;2023-02-21T06:18:26;102066.84;;;7.39;100.00
58658;BME280;44428;45.630;13.786;2023-02-21T06:20:53;102064.03;;;7.43;100.00
58658;BME280;44428;45.630;13.786;2023-02-21T06:23:19;102071.88;;;7.45;100.00
58658;BME280;44428;45.630;13.786;2023-02-21T06:25:44;102070.97;;;7.46;100.00
58658;BME280;44428;45.630;13.786;2023-02-21T06:28:10;102077.03;;;7.48;100.00
58658;BME280;44428;45.630;13.786;2023-02-21T06:30:36;102082.06;;;7.54;100.00
58658;BME280;44428;45.630;13.786;2023-02-21T06:33:02;102089.97;;;7.54;100.00
58658;BME280;44428;45.630;13.786;2023-02-21T06:35:28;102094.19;;;7.58;100.00
58658;BME280;44428;45.630;13.786;2023-02-21T06:37:54;102092.38;;;7.60;100.00
58658;BME280;44428;45.630;13.786;2023-02-21T06:40:20;102102.56;;;7.69;100.00
58658;BME280;44428;45.630;13.786;2023-02-21T06:42:46;102105.00;;;7.74;100.00
58658;BME280;44428;45.630;13.786;2023-02-21T06:45:12;102104.06;;;7.76;100.00
58658;BME280;44428;45.630;13.786;2023-02-21T06:47:38;102105.66;;;7.80;100.00
58658;BME280;44428;45.630;13.786;2023-02-21T06:50:04;102108.97;;;7.86;100.00
58658;BME280;44428;45.630;13.786;2023-02-21T06:52:30;102110.50;;;7.93;100.00
58658;BME280;44428;45.630;13.786;2023-02-21T06:54:56;102105.78;;;8.01;100.00
58658;BME280;44428;45.630;13.786;2023-02-21T06:57:22;102106.25;;;8.12;100.00
58658;BME280;44428;45.630;13.786;2023-02-21T06:59:48;102105.53;;;8.31;100.00
58658;BME280;44428;45.630;13.786;2023-02-21T07:02:17;102098.34;;;8.36;100.00
58658;BME280;44428;45.630;13.786;2023-02-21T07:04:45;102109.44;;;8.44;100.00
58658;BME280;44428;45.630;13.786;2023-02-21T07:07:11;102092.50;;;8.51;100.00
58658;BME280;44428;45.630;13.786;2023-02-21T07:09:37;102101.63;;;8.64;99.24
58658;BME280;44428;45.630;13.786;2023-02-21T07:12:03;102106.75;;;8.67;99.21
58658;BME280;44428;45.630;13.786;2023-02-21T07:14:29;102110.66;;;8.81;97.80
58658;BME280;44428;45.630;13.786;2023-02-21T07:16:59;102108.66;;;8.86;97.44
58658;BME280;44428;45.630;13.786;2023-02-21T07:19:30;102108.28;;;8.95;96.50
58658;BME280;44428;45.630;13.786;2023-02-21T07:21:56;102104.53;;;9.01;95.56
58658;BME280;44428;45.630;13.786;2023-02-21T07:24:22;102102.63;;;9.04;95.64
58658;BME280;44428;45.630;13.786;2023-02-21T07:26:48;102100.53;;;9.12;94.72
58658;BME280;44428;45.630;13.786;2023-02-21T07:29:14;102103.84;;;9.17;94.22
58658;BME280;44428;45.630;13.786;2023-02-21T07:31:40;102103.84;;;9.17;94.36
58658;BME280;44428;45.630;13.786;2023-02-21T07:34:06;102101.72;;;9.26;93.96
58658;BME280;44428;45.630;13.786;2023-02-21T07:36:32;102101.59;;;9.29;94.18
58658;BME280;44428;45.630;13.786;2023-02-21T07:38:58;102106.63;;;9.35;93.44
58658;BME280;44428;45.630;13.786;2023-02-21T07:41:23;102103.06;;;9.36;93.63
58658;BME280;44428;45.630;13.786;2023-02-21T07:43:49;102097.66;;;9.39;94.00
58658;BME280;44428;45.630;13.786;2023-02-21T07:46:16;102095.56;;;9.47;93.65
58658;BME280;44428;45.630;13.786;2023-02-21T07:48:42;102100.84;;;9.47;93.73
58658;BME280;44428;45.630;13.786;2023-02-21T07:51:09;102104.25;;;9.49;93.67
58658;BME280;44428;45.630;13.786;2023-02-21T07:53:35;102107.69;;;9.51;93.85
58658;BME280;44428;45.630;13.786;2023-02-21T07:56:02;102112.94;;;9.51;93.54
58658;BME280;44428;45.630;13.786;2023-02-21T07:58:28;102111.13;;;9.53;94.04
58658;BME280;44428;45.630;13.786;2023-02-21T08:00:54;102104.81;;;9.56;94.39
58658;BME280;44428;45.630;13.786;2023-02-21T08:03:20;102105.56;;;9.59;94.37
58658;BME280;44428;45.630;13.786;2023-02-21T08:05:47;102107.13;;;9.63;94.05
58658;BME280;44428;45.630;13.786;2023-02-21T08:08:14;102110.44;;;9.69;93.24
58658;BME280;44428;45.630;13.786;2023-02-21T08:10:41;102104.16;;;9.71;93.08
58658;BME280;44428;45.630;13.786;2023-02-21T08:13:07;102094.47;;;9.72;93.05
58658;BME280;44428;45.630;13.786;2023-02-21T08:15:33;102097.88;;;9.74;92.96
58658;BME280;44428;45.630;13.786;2023-02-21T08:17:59;102100.38;;;9.77;93.15
58658;BME280;44428;45.630;13.786;2023-02-21T08:20:29;102106.31;;;9.82;92.84
58658;BME280;44428;45.630;13.786;2023-02-21T08:22:56;102102.31;;;9.92;92.07
58658;BME280;44428;45.630;13.786;2023-02-21T08:25:22;102104.56;;;10.01;90.25
58658;BME280;44428;45.630;13.786;2023-02-21T08:27:48;102101.22;;;10.17;88.99
58658;BME280;44428;45.630;13.786;2023-02-21T08:30:18;102106.38;;;10.20;88.78
58658;BME280;44428;45.630;13.786;2023-02-21T08:32:44;102104.63;;;10.19;89.01
58658;BME280;44428;45.630;13.786;2023-02-21T08:35:14;102106.38;;;10.20;88.69
58658;BME280;44428;45.630;13.786;2023-02-21T08:37:48;102104.34;;;10.25;87.95
58658;BME280;44428;45.630;13.786;2023-02-21T08:40:18;102105.69;;;10.35;86.39
58658;BME280;44428;45.630;13.786;2023-02-21T08:42:50;102105.69;;;10.35;87.12
58658;BME280;44428;45.630;13.786;2023-02-21T08:45:18;102101.16;;;10.37;87.09
58658;BME280;44428;45.630;13.786;2023-02-21T08:47:45;102108.66;;;10.46;86.51
58658;BME280;44428;45.630;13.786;2023-02-21T08:50:11;102096.53;;;10.42;86.41
58658;BME280;44428;45.630;13.786;2023-02-21T08:52:37;102104.97;;;10.50;85.80
58658;BME280;44428;45.630;13.786;2023-02-21T08:55:07;102101.22;;;10.54;85.69
58658;BME280;44428;45.630;13.786;2023-02-21T08:57:33;102099.22;;;10.60;85.81
58658;BME280;44428;45.630;13.786;2023-02-21T09:00:00;102104.22;;;10.66;85.29
58658;BME280;44428;45.630;13.786;2023-02-21T09:02:26;102106.34;;;10.76;84.36
58658;BME280;44428;45.630;13.786;2023-02-21T09:04:53;102097.25;;;10.82;83.31
58658;BME280;44428;45.630;13.786;2023-02-21T09:07:21;102103.31;;;10.84;83.86
58658;BME280;44428;45.630;13.786;2023-02-21T09:09:47;102107.66;;;10.85;84.28
58658;BME280;44428;45.630;13.786;2023-02-21T09:12:14;102108.31;;;10.90;84.17
58658;BME280;44428;45.630;13.786;2023-02-21T09:14:41;102112.97;;;10.85;85.59
58658;BME280;44428;45.630;13.786;2023-02-21T09:17:09;102117.59;;;10.80;86.17
58658;BME280;44428;45.630;13.786;2023-02-21T09:19:36;102117.19;;;10.70;86.38
58658;BME280;44428;45.630;13.786;2023-02-21T09:22:02;102113.22;;;10.62;86.36
58658;BME280;44428;45.630;13.786;2023-02-21T09:24:29;102118.66;;;10.59;86.83
58658;BME280;44428;45.630;13.786;2023-02-21T09:26:57;102116.44;;;10.49;86.65
58658;BME280;44428;45.630;13.786;2023-02-21T09:29:24;102109.47;;;10.48;86.89
58658;BME280;44428;45.630;13.786;2023-02-21T09:31:51;102115.69;;;10.47;87.01
58658;BME280;44428;45.630;13.786;2023-02-21T09:34:17;102108.50;;;10.49;87.00
58658;BME280;44428;45.630;13.786;2023-02-21T09:36:43;102110.25;;;10.50;87.61
58658;BME280;44428;45.630;13.786;2023-02-21T09:39:09;102112.75;;;10.53;87.96
58658;BME280;44428;45.630;13.786;2023-02-21T09:41:37;102111.66;;;10.58;88.22
58658;BME280;44428;45.630;13.786;2023-02-21T09:44:05;102116.78;;;10.61;88.90
58658;BME280;44428;45.630;13.786;2023-02-21T09:46:54;102102.50;;;10.65;89.57
58658;BME280;44428;45.630;13.786;2023-02-21T09:49:25;102117.34;;;10.67;90.00
58658;BME280;44428;45.630;13.786;2023-02-21T09:51:53;102123.50;;;10.68;90.92
58658;BME280;44428;45.630;13.786;2023-02-21T09:54:25;102122.22;;;10.58;92.15
58658;BME280;44428;45.630;13.786;2023-02-21T09:56:53;102126.81;;;10.54;92.19
58658;BME280;44428;45.630;13.786;2023-02-21T09:59:22;102122.53;;;10.51;92.01
58658;BME280;44428;45.630;13.786;2023-02-21T10:12:33;102119.50;;;10.78;85.74
58658;BME280;44428;45.630;13.786;2023-02-21T10:15:07;102112.06;;;10.86;85.30
58658;BME280;44428;45.630;13.786;2023-02-21T10:17:51;102113.16;;;10.99;83.69
58658;BME280;44428;45.630;13.786;2023-02-21T10:23:00;102109.44;;;11.38;82.26
58658;BME280;44428;45.630;13.786;2023-02-21T10:25:30;102105.72;;;11.58;80.54
58658;BME280;44428;45.630;13.786;2023-02-21T10:27:58;102107.50;;;11.75;79.74
58658;BME280;44428;45.630;13.786;2023-02-21T10:30:36;102107.50;;;11.93;78.43
58658;BME280;44428;45.630;13.786;2023-02-21T10:33:03;102098.72;;;12.08;76.62
58658;BME280;44428;45.630;13.786;2023-02-21T10:35:33;102111.53;;;12.31;75.70
58658;BME280;44428;45.630;13.786;2023-02-21T10:38:11;102103.94;;;12.25;74.18
58658;BME280;44428;45.630;13.786;2023-02-21T10:41:08;102101.03;;;12.46;74.16
58658;BME280;44428;45.630;13.786;2023-02-21T10:43:47;102100.97;;;12.63;73.16
58658;BME280;44428;45.630;13.786;2023-02-21T10:46:31;102102.13;;;12.73;72.87
58658;BME280;44428;45.630;13.786;2023-02-21T10:52:08;102087.44;;;12.52;73.69
58658;BME280;44428;45.630;13.786;2023-02-21T10:54:35;102095.66;;;12.47;73.88
58658;BME280;44428;45.630;13.786;2023-02-21T10:57:03;102093.25;;;12.11;76.36
58658;BME280;44428;45.630;13.786;2023-02-21T10:59:34;102087.78;;;12.14;76.52
58658;BME280;44428;45.630;13.786;2023-02-21T11:02:01;102085.56;;;12.22;75.72
58658;BME280;44428;45.630;13.786;2023-02-21T11:07:09;102073.97;;;12.41;75.26
58658;BME280;44428;45.630;13.786;2023-02-21T11:09:39;102079.09;;;12.44;75.20
58658;BME280;44428;45.630;13.786;2023-02-21T11:12:27;102076.66;;;12.55;75.08
58658;BME280;44428;45.630;13.786;2023-02-21T11:15:16;102074.63;;;12.60;74.46
58658;BME280;44428;45.630;13.786;2023-02-21T11:17:43;102079.75;;;12.63;73.36
58658;BME280;44428;45.630;13.786;2023-02-21T11:22:41;102078.41;;;12.56;71.65
58658;BME280;44428;45.630;13.786;2023-02-21T11:25:15;102073.66;;;12.61;71.74
58658;BME280;44428;45.630;13.786;2023-02-21T11:30:31;102057.53;;;12.50;71.92
58658;BME280;44428;45.630;13.786;2023-02-21T11:32:59;102054.75;;;12.67;71.07
58658;BME280;44428;45.630;13.786;2023-02-21T11:35:29;102050.63;;;12.77;70.17
58658;BME280;44428;45.630;13.786;2023-02-21T11:38:07;102049.56;;;12.96;70.15
58658;BME280;44428;45.630;13.786;2023-02-21T11:40:43;102041.47;;;13.13;68.98
58658;BME280;44428;45.630;13.786;2023-02-21T11:43:23;102037.84;;;13.14;68.36
58658;BME280;44428;45.630;13.786;2023-02-21T11:48:28;102028.63;;;13.50;66.45
58658;BME280;44428;45.630;13.786;2023-02-21T11:51:02;102023.88;;;13.55;66.48
58658;BME280;44428;45.630;13.786;2023-02-21T11:53:38;102021.13;;;13.57;65.97
58658;BME280;44428;45.630;13.786;2023-02-21T12:05:48;102008.91;;;13.54;66.16
58658;BME280;44428;45.630;13.786;2023-02-21T12:08:16;102009.28;;;13.48;65.92
58658;BME280;44428;45.630;13.786;2023-02-21T12:11:15;102003.19;;;13.46;65.89
58658;BME280;44428;45.630;13.786;2023-02-21T12:13:53;102001.31;;;13.34;66.40
58658;BME280;44428;45.630;13.786;2023-02-21T12:19:29;102002.63;;;13.26;66.87
58658;BME280;44428;45.630;13.786;2023-02-21T12:24:58;101995.63;;;13.40;66.59
58658;BME280;44428;45.630;13.786;2023-02-21T12:48:58;101955.91;;;13.52;66.20
58658;BME280;44428;45.630;13.786;2023-02-21T12:51:32;101956.81;;;13.51;66.36
58658;BME280;44428;45.630;13.786;2023-02-21T12:54:07;101951.97;;;13.58;66.43
58658;BME280;44428;45.630;13.786;2023-02-21T12:56:56;101944.19;;;13.69;65.83
58658;BME280;44428;45.630;13.786;2023-02-21T12:59:32;101944.38;;;13.66;66.00
58658;BME280;44428;45.630;13.786;2023-02-21T13:02:35;101933.38;;;13.72;65.98
58658;BME280;44428;45.630;13.786;2023-02-21T13:05:10;101929.56;;;13.77;65.69
58658;BME280;44428;45.630;13.786;2023-02-21T13:07:44;101926.50;;;13.83;65.24
58658;BME280;44428;45.630;13.786;2023-02-21T13:10:18;101922.53;;;13.75;65.79
58658;BME280;44428;45.630;13.786;2023-02-21T13:13:11;101919.91;;;13.61;66.10
58658;BME280;44428;45.630;13.786;2023-02-21T13:15:40;101916.06;;;13.52;66.73
58658;BME280;44428;45.630;13.786;2023-02-21T13:18:18;101914.59;;;13.61;66.47
58658;BME280;44428;45.630;13.786;2023-02-21T13:20:52;101917.63;;;13.69;66.47
58658;BME280;44428;45.630;13.786;2023-02-21T13:29:30;101904.72;;;13.78;66.13
58658;BME280;44428;45.630;13.786;2023-02-21T13:32:00;101909.84;;;13.81;65.85
58658;BME280;44428;45.630;13.786;2023-02-21T13:34:40;101901.94;;;13.79;66.21
58658;BME280;44428;45.630;13.786;2023-02-21T13:37:18;101899.22;;;13.81;66.17
58658;BME280;44428;45.630;13.786;2023-02-21T13:39:50;101894.28;;;13.74;66.32
58658;BME280;44428;45.630;13.786;2023-02-21T13:42:22;101901.28;;;13.75;66.61
58658;BME280;44428;45.630;13.786;2023-02-21T13:53:21;101883.72;;;13.46;67.59
58658;BME280;44428;45.630;13.786;2023-02-21T13:58:46;101882.38;;;13.24;68.81
58658;BME280;44428;45.630;13.786;2023-02-21T14:03:54;101876.91;;;12.84;71.47
58658;BME280;44428;45.630;13.786;2023-02-21T14:06:37;101877.66;;;12.72;72.28
58658;BME280;44428;45.630;13.786;2023-02-21T14:09:14;101879.91;;;12.64;73.34
58658;BME280;44428;45.630;13.786;2023-02-21T14:11:46;101885.75;;;12.55;74.60
58658;BME280;44428;45.630;13.786;2023-02-21T14:14:20;101883.13;;;12.55;75.02
58658;BME280;44428;45.630;13.786;2023-02-21T14:16:58;101876.34;;;12.65;75.27
58658;BME280;44428;45.630;13.786;2023-02-21T14:22:34;101873.09;;;12.60;76.62
58658;BME280;44428;45.630;13.786;2023-02-21T14:25:05;101871.59;;;12.56;76.46
58658;BME280;44428;45.630;13.786;2023-02-21T14:27:34;101872.44;;;12.56;76.97
58658;BME280;44428;45.630;13.786;2023-02-21T14:32:37;101861.19;;;12.37;77.56
58658;BME280;44428;45.630;13.786;2023-02-21T14:38:04;101860.72;;;12.30;79.07
58658;BME280;44428;45.630;13.786;2023-02-21T15:00:01;101865.34;;;11.81;84.01
58658;BME280;44428;45.630;13.786;2023-02-21T15:05:19;101855.34;;;11.70;85.95
58658;BME280;44428;45.630;13.786;2023-02-21T15:10:17;101858.69;;;11.58;88.17
58658;BME280;44428;45.630;13.786;2023-02-21T15:15:26;101863.56;;;11.50;90.27
58658;BME280;44428;45.630;13.786;2023-02-21T15:18:06;101865.44;;;11.48;90.52
58658;BME280;44428;45.630;13.786;2023-02-21T15:20:37;101867.66;;;11.39;91.04
58658;BME280;44428;45.630;13.786;2023-02-21T15:25:35;101858.94;;;11.37;91.60
58658;BME280;44428;45.630;13.786;2023-02-21T15:28:14;101862.69;;;11.33;91.88
58658;BME280;44428;45.630;13.786;2023-02-21T15:30:57;101868.16;;;11.30;92.63
58658;BME280;44428;45.630;13.786;2023-02-21T15:33:25;101857.91;;;11.24;93.26
58658;BME280;44428;45.630;13.786;2023-02-21T15:36:00;101856.72;;;11.14;93.87
58658;BME280;44428;45.630;13.786;2023-02-21T15:38:33;101856.88;;;11.11;94.12
58658;BME280;44428;45.630;13.786;2023-02-21T15:41:30;101856.88;;;11.11;94.42